Florence, SC (29501)

10:15 PM EDT on April 21, 2015 (GMT -0400)
Forest Hills | | Change Station
CLOSE
Current Station
Personal Weather Station
Location: Florence, SC
Elevation: 115 ft
Nearby Weather Stations
Active Advisory: Flood Warning

Elev 115 ft 34.18 °N, 79.78 °W | Updated 2 minutes ago

Clear
Clear
57.7 °F
Feels Like 57.7 °F
N
0.0
Wind Variable Wind from SSW

Today
High -- | Low -- °F
--% Chance of Precip.
Yesterday
High -- | Low -- °F
Precip. -- in
6:41 AM 7:55 PM
Waxing Crescent, 14% visible
Pressure 29.89 in
Visibility 10.0 miles
Clouds Clear
Dew Point 49 °F
Humidity 72%
Rainfall 0.00 in
Snow Depth Not available.
UV 0 out of 12
Pollen 9.80 out of 12
Air Quality Not available.
Flu Activity Local Activity
METAR KFLO 220153Z AUTO 00000KT 10SM CLR 18/04 A2990 RMK AO2 SLP122 T01830044

More Conditions Fewer Conditions

Pressure 29.89 in
Visibility 10.0 miles
Clouds Clear
Dew Point 49 °F
Humidity 72%
Rainfall 0.00 in
Snow Depth Not available.
UV 0 out of 12
Pollen 9.80 out of 12
Air Quality Not available.
Flu Activity Local Activity
METAR KFLO 220153Z AUTO 00000KT 10SM CLR 18/04 A2990 RMK AO2 SLP122 T01830044

More Conditions Fewer Conditions

10-Day Weather Forecast

Almanac

Astronomy

Apr. 21, 2015 Rise Set
Actual Time
Civil Twilight
Nautical Twilight
Astronomical Twilight
Moon
Length of Visible Light
Length of Day
Tomorrow will be .
, % of the Moon is Illuminated

Today's Extremes

State Highs State Lows

Community

WunderPhotos

Upload Photos

1,815,634 photos uploaded!

WunderBlogs® & News

Nearby

Air Quality

  Air Quality AQ Index Pollutant
Not available.

Snow Depth

Station Depth Elevation

Earthquake Activity

City Distance Mag. Time & Date
Minimum magnitude displayed is 2.5.

Coastal Water Temperatures

Place Temperature

Stations

Nearby Weather Stations

Station Location Temp. Windchill Dew Point Humidity Wind Precip. Elev Updated Type
                   
Flood Warning
Statement as of 9:40 PM EDT on April 21, 2015

... Flood Warning now in effect until further notice...
the Flood Warning continues for
the great Pee Dee at Pee Dee.
* From late tonight until further notice.
* At 9:00 PM Tuesday the stage was 18.6 feet.
* Flood stage is 19.0 feet.
* Minor flooding is forecast.
* Forecast... rise above flood stage by late tonight and continue to rise to near
22.8 feet by Saturday evening.
* Impact... at 23.0 feet... flooding will affect swamp and timberlands while also
disrupting logging operations. Operations will likely cease and equipment not
previously moved will remain trapped. Some farmland will have minor flooding
especially around Britton Neck.


Lat... Lon 3424 7962 3424 7950 3400 7945 3385 7932
          3385 7944 3398 7957